Impacts TAF Board
For situational awareness. Not to be used for flight planning purposes.
IDs:

KCSG - Columbus Arpt, GA, US

Issued at 0520 UTC 18 Oct 2018
Updated at 0557 UTC 18 Oct 2018
Potential Impact None Slight Moderate High
Time<<18/18Z 18/19Z 18/20Z 18/21Z 18/22Z 18/23Z 19/00Z 19/01Z 19/02Z 19/03Z 19/04Z 19/05Z 19/06Z>>
Type PRVL PRVL PRVL PRVL PRVL PRVL PRVL PRVL PRVL PRVL PRVL PRVL
VIS >6 >6 >6 >6 >6 >6 >6 >6 >6 >6 >6 >6
CIG -- -- -- -- -- -- -- -- -- -- -- --
Cover SCT SCT SCT SCT SCT SCT SCT SCT SCT SCT SCT SCT
FltCat VFR VFR VFR VFR VFR VFR VFR VFR VFR VFR VFR VFR
WX -- -- -- -- -- -- -- -- -- -- -- --
WDir 90 90 90 90 90 90 90 90 90 90 90 90
WSpd 7 7 7 7 7 7 5 5 5 5 5 5
WGst -- -- -- -- -- -- -- -- -- -- -- --
Raw TAF
KCSG 180520Z 1806/1906 03006KT P6SM FEW080 SCT250
  FM181300 08009KT P6SM FEW080 SCT250
  FM181800 09007KT P6SM SCT250
  FM190000 09005KT P6SM SCT250


METAR Board
Radar Display
Forecast Discussion
For situational awareness. Not to be used for flight planning purposes.